Time;durP1;ratioP1;P1;durP2;ratioP2;P2;SDS_P1;SDS_P2;PMS_P1;PMS_P2;Temp;Humidity;BMP_temperature;BMP_pressure;BME280_temperature;BME280_humidity;BME280_pressure;Samples;Min_cycle;Max_cycle;Signal;HPM_P1;HPM_P2
2020/12/16 00:01:46;;;;;;;22.40;14.20;;;8.90;99.90;;;;;;7064430;27;20477;-67
2020/12/16 00:05:10;;;;;;;23.00;14.25;;;8.80;99.90;;;;;;7028824;27;20406;-67
2020/12/16 00:08:31;;;;;;;24.42;14.98;;;9.00;99.90;;;;;;7037277;27;20756;-67
2020/12/16 00:11:51;;;;;;;22.57;14.60;;;8.90;99.90;;;;;;7042131;27;20867;-67
2020/12/16 00:15:12;;;;;;;20.55;14.10;;;8.90;99.90;;;;;;7057178;27;20401;-67
2020/12/16 00:18:33;;;;;;;22.38;15.25;;;8.90;99.90;;;;;;7045267;27;20479;-67
2020/12/16 00:21:58;;;;;;;21.70;14.50;;;9.00;99.90;;;;;;7028822;27;20394;-68
2020/12/16 00:25:19;;;;;;;21.38;14.20;;;9.10;99.90;;;;;;7039208;27;20400;-67
2020/12/16 00:28:41;;;;;;;25.58;15.63;;;9.10;99.90;;;;;;7034019;27;20733;-67
2020/12/16 00:32:04;;;;;;;21.57;14.87;;;9.10;99.90;;;;;;7056894;27;20387;-68
2020/12/16 00:35:29;;;;;;;22.45;15.00;;;9.10;99.90;;;;;;7041711;27;20395;-67
2020/12/16 00:38:49;;;;;;;22.70;14.50;;;9.10;99.90;;;;;;7044320;27;20521;-67
2020/12/16 00:42:10;;;;;;;24.00;14.90;;;9.00;99.90;;;;;;7061592;27;20402;-67
2020/12/16 00:45:31;;;;;;;24.20;15.10;;;9.10;99.90;;;;;;7043777;27;20398;-67
2020/12/16 00:48:52;;;;;;;23.10;14.32;;;9.10;99.90;;;;;;7043785;27;20998;-68
2020/12/16 00:52:14;;;;;;;22.83;14.73;;;9.10;99.90;;;;;;7037833;27;20397;-67
2020/12/16 00:55:35;;;;;;;21.90;13.80;;;9.10;99.90;;;;;;7034270;27;20422;-67
2020/12/16 00:58:55;;;;;;;21.67;13.87;;;9.00;99.90;;;;;;7040223;27;20398;-68
2020/12/16 01:02:16;;;;;;;21.60;13.68;;;9.00;99.90;;;;;;7042039;27;20430;-67
2020/12/16 01:05:38;;;;;;;24.30;14.35;;;9.00;99.90;;;;;;7030870;27;20421;-67
2020/12/16 01:08:58;;;;;;;21.60;13.43;;;9.00;99.90;;;;;;7040827;27;20379;-67
2020/12/16 01:12:20;;;;;;;22.85;13.43;;;9.00;99.90;;;;;;7031562;27;20436;-67
2020/12/16 01:15:41;;;;;;;20.50;13.40;;;9.00;99.90;;;;;;7042351;27;20402;-67
2020/12/16 01:19:06;;;;;;;23.35;13.93;;;9.00;99.90;;;;;;7058948;27;20470;-67
2020/12/16 01:22:42;;;;;;;23.50;13.77;;;9.00;99.90;;;;;;7041266;27;20963;-67
2020/12/16 01:26:03;;;;;;;23.95;13.77;;;9.00;99.90;;;;;;7035761;27;20442;-67
2020/12/16 01:29:27;;;;;;;25.05;14.07;;;8.90;99.90;;;;;;7039937;27;20402;-67
2020/12/16 01:32:50;;;;;;;23.08;14.40;;;9.00;99.90;;;;;;7025842;27;20405;-67
2020/12/16 01:36:12;;;;;;;22.40;13.83;;;9.00;99.90;;;;;;7037712;27;20391;-68
2020/12/16 01:39:35;;;;;;;24.27;14.60;;;8.90;99.90;;;;;;7036605;27;20808;-67
2020/12/16 01:42:56;;;;;;;24.98;15.00;;;8.90;99.90;;;;;;7043594;27;20493;-67
2020/12/16 01:46:18;;;;;;;23.00;14.40;;;8.90;99.90;;;;;;7040211;27;20400;-67
2020/12/16 01:49:39;;;;;;;24.40;14.93;;;8.80;99.90;;;;;;7072187;27;20397;-67
2020/12/16 01:53:01;;;;;;;24.48;13.93;;;8.80;99.90;;;;;;7039154;27;20396;-67
2020/12/16 01:56:39;;;;;;;23.63;14.67;;;8.80;99.90;;;;;;7048231;27;20413;-67
2020/12/16 02:00:12;;;;;;;21.53;13.03;;;8.80;99.90;;;;;;7063348;27;20374;-67
2020/12/16 02:03:38;;;;;;;22.00;13.40;;;8.70;99.90;;;;;;7056771;27;20418;-67
2020/12/16 02:07:07;;;;;;;21.95;12.85;;;8.60;99.90;;;;;;7042805;27;20411;-67
2020/12/16 02:10:28;;;;;;;22.67;13.77;;;8.70;99.90;;;;;;7056230;27;20495;-67
2020/12/16 02:13:49;;;;;;;19.20;12.03;;;8.60;99.90;;;;;;7044472;27;20879;-67
2020/12/16 02:17:11;;;;;;;20.33;12.70;;;8.60;99.90;;;;;;7045415;27;20398;-67
2020/12/16 02:20:34;;;;;;;20.65;13.15;;;8.50;99.90;;;;;;7040655;27;20466;-67
2020/12/16 02:24:04;;;;;;;19.13;11.90;;;8.50;99.90;;;;;;7043151;27;20709;-67
2020/12/16 02:27:27;;;;;;;24.90;13.90;;;8.40;99.90;;;;;;7030601;27;20398;-67
2020/12/16 02:30:49;;;;;;;18.98;12.00;;;8.50;99.90;;;;;;7044997;27;20539;-67
2020/12/16 02:34:34;;;;;;;20.60;13.10;;;8.60;99.90;;;;;;7049406;27;20409;-68
2020/12/16 02:37:57;;;;;;;23.77;13.95;;;8.40;99.90;;;;;;7048818;27;20416;-68
2020/12/16 02:41:23;;;;;;;22.30;13.63;;;8.40;99.90;;;;;;7053797;27;20401;-68
2020/12/16 02:44:45;;;;;;;19.50;12.10;;;8.50;99.90;;;;;;7063562;27;20409;-68
2020/12/16 02:48:18;;;;;;;20.13;12.90;;;8.40;99.90;;;;;;7033105;27;20403;-68
2020/12/16 02:51:40;;;;;;;21.30;12.20;;;8.40;99.90;;;;;;7038212;27;20408;-68
2020/12/16 02:55:02;;;;;;;23.27;13.25;;;8.50;99.90;;;;;;7023565;27;20888;-68
2020/12/16 02:58:33;;;;;;;21.70;12.68;;;8.40;99.90;;;;;;7039091;27;20408;-68
2020/12/16 03:01:56;;;;;;;22.52;13.35;;;8.40;99.90;;;;;;7046664;27;20400;-68
2020/12/16 03:05:39;;;;;;;22.88;13.40;;;8.20;99.90;;;;;;7065976;27;20396;-68
2020/12/16 03:09:03;;;;;;;23.23;13.38;;;8.30;99.90;;;;;;7039876;27;20910;-66
2020/12/16 03:12:29;;;;;;;23.33;13.05;;;8.30;99.90;;;;;;7039633;27;20382;-68
2020/12/16 03:15:51;;;;;;;20.85;12.75;;;8.30;99.90;;;;;;7045432;27;20484;-68
2020/12/16 03:19:14;;;;;;;20.02;12.00;;;8.20;99.90;;;;;;7036269;27;20407;-68
2020/12/16 03:22:34;;;;;;;20.33;12.40;;;8.10;99.90;;;;;;7036891;27;20905;-67
2020/12/16 03:26:14;;;;;;;18.03;11.77;;;8.10;99.90;;;;;;7064065;27;20393;-68
2020/12/16 03:29:51;;;;;;;22.17;12.43;;;7.90;99.90;;;;;;7057530;27;20392;-67
2020/12/16 03:33:29;;;;;;;21.55;12.80;;;8.20;99.90;;;;;;7048882;27;20442;-67
2020/12/16 03:37:06;;;;;;;20.57;11.50;;;8.20;99.90;;;;;;7042313;27;20402;-67
2020/12/16 03:40:28;;;;;;;20.73;12.68;;;8.10;99.90;;;;;;7032399;27;20517;-67
2020/12/16 03:43:54;;;;;;;21.87;13.40;;;8.20;99.90;;;;;;7033947;27;20780;-67
2020/12/16 03:47:16;;;;;;;21.00;12.60;;;8.20;99.90;;;;;;7052061;27;20486;-67
2020/12/16 03:50:40;;;;;;;21.98;12.57;;;8.20;99.90;;;;;;7035690;27;20399;-67
2020/12/16 03:54:01;;;;;;;21.27;12.30;;;8.20;99.90;;;;;;7042388;27;20484;-67
2020/12/16 03:57:38;;;;;;;25.73;14.57;;;8.10;99.90;;;;;;7037630;27;20450;-67
2020/12/16 04:01:22;;;;;;;29.25;15.30;;;8.20;99.90;;;;;;7043455;27;20481;-67
2020/12/16 04:04:45;;;;;;;27.77;16.15;;;8.10;99.90;;;;;;7042034;27;20395;-66
2020/12/16 04:08:06;;;;;;;27.13;15.30;;;8.10;99.90;;;;;;7035635;27;20542;-66
2020/12/16 04:11:53;;;;;;;26.17;15.60;;;8.10;99.90;;;;;;7039747;27;20430;-66
2020/12/16 04:15:22;;;;;;;26.88;15.35;;;8.00;99.90;;;;;;7055561;27;20388;-66
2020/12/16 04:18:43;;;;;;;30.45;16.08;;;8.10;99.90;;;;;;7058314;27;20398;-66
2020/12/16 04:22:04;;;;;;;29.10;15.93;;;8.10;99.90;;;;;;7035898;27;20836;-67
2020/12/16 04:25:32;;;;;;;26.85;15.20;;;7.90;99.90;;;;;;7034875;27;20406;-67
2020/12/16 04:28:55;;;;;;;25.17;14.57;;;7.90;99.90;;;;;;7040078;27;20402;-66
2020/12/16 04:32:16;;;;;;;25.90;14.95;;;7.90;99.90;;;;;;7040258;27;20436;-67
2020/12/16 04:35:42;;;;;;;26.70;15.13;;;8.00;99.90;;;;;;7037774;27;20397;-67
2020/12/16 04:39:03;;;;;;;28.77;15.48;;;8.10;99.90;;;;;;7029046;27;20432;-67
2020/12/16 04:42:24;;;;;;;26.00;14.27;;;8.20;99.90;;;;;;7042414;27;20398;-67
2020/12/16 04:45:46;;;;;;;24.53;13.70;;;8.10;99.90;;;;;;7022482;27;20412;-66
2020/12/16 04:49:09;;;;;;;29.30;15.73;;;8.20;99.90;;;;;;7056631;27;20480;-67
2020/12/16 04:52:36;;;;;;;31.40;16.65;;;8.20;99.90;;;;;;7035673;27;20471;-68
2020/12/16 04:56:07;;;;;;;29.00;15.35;;;8.20;99.90;;;;;;7003173;28;20404;-68
2020/12/16 04:59:48;;;;;;;27.75;15.82;;;8.10;99.90;;;;;;7066771;27;21010;-68
2020/12/16 05:03:28;;;;;;;28.57;15.63;;;8.10;99.90;;;;;;7047767;27;20438;-68
2020/12/16 05:07:04;;;;;;;33.63;16.90;;;8.00;99.90;;;;;;7059101;27;20750;-68
2020/12/16 05:10:34;;;;;;;33.28;18.30;;;8.00;99.90;;;;;;7042737;27;20484;-68
2020/12/16 05:14:10;;;;;;;34.35;17.48;;;8.00;99.90;;;;;;7032683;27;20403;-68
2020/12/16 05:17:32;;;;;;;28.63;15.70;;;8.10;99.90;;;;;;7043873;27;20460;-68
2020/12/16 05:21:05;;;;;;;27.45;14.60;;;8.10;99.90;;;;;;7028144;27;20495;-68
2020/12/16 05:24:26;;;;;;;25.23;14.52;;;8.00;99.90;;;;;;7038664;27;20410;-68
2020/12/16 05:27:49;;;;;;;26.58;14.70;;;7.80;99.90;;;;;;7031106;27;20411;-67
2020/12/16 05:31:12;;;;;;;28.98;15.23;;;7.90;99.90;;;;;;7049004;27;20399;-67
2020/12/16 05:34:33;;;;;;;28.40;15.40;;;8.00;99.90;;;;;;7028988;27;20489;-67
2020/12/16 05:38:04;;;;;;;30.35;16.20;;;7.90;99.90;;;;;;7030487;27;20410;-68
2020/12/16 05:41:32;;;;;;;35.58;17.50;;;7.80;99.90;;;;;;7032758;27;20408;-67
2020/12/16 05:44:56;;;;;;;31.00;16.30;;;8.00;99.90;;;;;;7027299;27;20999;-68
2020/12/16 05:48:17;;;;;;;34.15;17.58;;;8.00;99.90;;;;;;7044568;27;20400;-67
2020/12/16 05:51:38;;;;;;;34.10;16.90;;;8.10;99.90;;;;;;7047046;27;20798;-67
2020/12/16 05:54:59;;;;;;;33.28;17.55;;;8.10;99.90;;;;;;7036084;27;20422;-67
2020/12/16 05:58:22;;;;;;;31.90;16.60;;;8.10;99.90;;;;;;7024642;27;20390;-67
2020/12/16 06:01:44;;;;;;;26.85;14.43;;;8.00;99.90;;;;;;7017428;27;20501;-67
2020/12/16 06:05:11;;;;;;;28.63;15.73;;;8.00;99.90;;;;;;7064429;27;20418;-67
2020/12/16 06:08:35;;;;;;;27.05;15.38;;;8.00;99.90;;;;;;7029460;27;20761;-68
2020/12/16 06:12:04;;;;;;;26.55;15.30;;;8.00;99.90;;;;;;7030478;27;20408;-67
2020/12/16 06:15:27;;;;;;;26.65;15.00;;;7.90;99.90;;;;;;7051373;27;20458;-67
2020/12/16 06:18:51;;;;;;;30.65;15.38;;;7.80;99.90;;;;;;7023583;27;20908;-66
2020/12/16 06:22:12;;;;;;;31.47;17.10;;;7.90;99.90;;;;;;7017564;27;20403;-66
2020/12/16 06:25:36;;;;;;;28.40;15.70;;;7.90;99.90;;;;;;7029235;27;20412;-67
2020/12/16 06:28:59;;;;;;;28.13;15.25;;;7.90;99.90;;;;;;7034064;27;20763;-66
2020/12/16 06:32:28;;;;;;;31.02;16.35;;;7.90;99.90;;;;;;7041496;27;20424;-66
2020/12/16 06:35:54;;;;;;;31.90;16.30;;;7.90;99.90;;;;;;7032930;27;21249;-67
2020/12/16 06:39:21;;;;;;;36.00;18.10;;;8.10;99.90;;;;;;7036998;27;20394;-66
2020/12/16 06:42:42;;;;;;;38.13;18.55;;;8.10;99.90;;;;;;7045423;27;20453;-66
2020/12/16 06:46:25;;;;;;;39.80;17.33;;;8.20;99.90;;;;;;7058295;27;20479;-66
2020/12/16 06:49:46;;;;;;;60.80;18.60;;;8.30;99.90;;;;;;7031779;27;20874;-67
2020/12/16 06:53:23;;;;;;;59.77;17.00;;;8.20;99.90;;;;;;7058771;27;20459;-67
2020/12/16 06:56:45;;;;;;;44.50;15.20;;;8.20;99.90;;;;;;7027163;27;20405;-67
2020/12/16 07:00:15;;;;;;;51.60;15.52;;;7.90;99.90;;;;;;7032113;27;20399;-65
2020/12/16 07:03:36;;;;;;;35.35;13.20;;;7.80;99.90;;;;;;7026284;27;20421;-67
2020/12/16 07:06:57;;;;;;;34.33;13.40;;;7.70;99.90;;;;;;7022385;27;20414;-67
2020/12/16 07:10:34;;;;;;;29.23;13.00;;;7.60;99.90;;;;;;7027392;27;20837;-67
2020/12/16 07:14:22;;;;;;;33.23;13.43;;;7.60;99.90;;;;;;7025229;27;20493;-67
2020/12/16 07:17:43;;;;;;;34.72;13.77;;;7.50;99.90;;;;;;7045120;27;20885;-66
2020/12/16 07:21:07;;;;;;;36.00;14.40;;;7.50;99.90;;;;;;7019035;27;20432;-66
2020/12/16 07:24:29;;;;;;;39.30;15.23;;;7.40;99.90;;;;;;7034426;27;20768;-65
2020/12/16 07:27:51;;;;;;;32.63;14.30;;;7.50;99.90;;;;;;7038084;27;20416;-65
2020/12/16 07:31:12;;;;;;;35.78;15.52;;;7.40;99.90;;;;;;7023394;27;20406;-65
2020/12/16 07:35:03;;;;;;;40.67;16.92;;;7.50;99.90;;;;;;7022977;27;20444;-66
2020/12/16 07:38:31;;;;;;;34.85;15.50;;;7.60;99.90;;;;;;7024891;27;20401;-66
2020/12/16 07:41:55;;;;;;;40.80;17.13;;;7.60;99.90;;;;;;7055350;27;20508;-65
2020/12/16 07:45:16;;;;;;;36.63;16.30;;;7.70;99.90;;;;;;7025627;27;20448;-67
2020/12/16 07:48:37;;;;;;;39.65;16.80;;;7.80;99.90;;;;;;7049291;27;20773;-66
2020/12/16 07:52:02;;;;;;;36.23;16.90;;;7.80;99.90;;;;;;7029135;27;20405;-66
2020/12/16 07:55:24;;;;;;;38.58;16.70;;;7.80;99.90;;;;;;7029050;27;20390;-66
2020/12/16 07:58:45;;;;;;;34.90;16.50;;;7.80;99.90;;;;;;7056339;27;20495;-67
2020/12/16 08:02:09;;;;;;;37.90;16.90;;;7.80;99.90;;;;;;7044135;27;20401;-67
2020/12/16 08:05:29;;;;;;;39.28;16.90;;;7.70;99.90;;;;;;7033964;27;20416;-67
2020/12/16 08:08:53;;;;;;;38.00;17.75;;;7.80;99.90;;;;;;7030155;27;20892;-67
2020/12/16 08:12:16;;;;;;;39.85;17.30;;;7.80;99.90;;;;;;7034425;27;20410;-66
2020/12/16 08:15:38;;;;;;;38.85;17.00;;;7.90;99.90;;;;;;7038834;27;20390;-65
2020/12/16 08:19:01;;;;;;;39.83;18.13;;;7.90;99.90;;;;;;7026370;27;20595;-66
2020/12/16 08:22:23;;;;;;;39.47;17.92;;;7.90;99.90;;;;;;7016306;27;20508;-67
2020/12/16 08:25:44;;;;;;;39.72;18.30;;;8.00;99.90;;;;;;7047858;27;20496;-67
2020/12/16 08:29:05;;;;;;;39.77;17.90;;;8.00;99.90;;;;;;7043579;27;20391;-67
2020/12/16 08:32:29;;;;;;;37.17;17.58;;;8.00;99.90;;;;;;7035700;27;20394;-66
2020/12/16 08:35:53;;;;;;;38.25;18.25;;;8.00;99.90;;;;;;7030012;27;20419;-67
2020/12/16 08:39:14;;;;;;;34.67;17.10;;;8.10;99.90;;;;;;7047337;27;20436;-67
2020/12/16 08:42:35;;;;;;;37.17;17.83;;;8.00;99.90;;;;;;7045688;27;20453;-65
2020/12/16 08:46:04;;;;;;;39.47;18.00;;;8.00;99.90;;;;;;7027373;27;20463;-64
2020/12/16 08:49:25;;;;;;;35.15;17.73;;;8.10;99.90;;;;;;7053467;27;20828;-64
2020/12/16 08:52:47;;;;;;;38.20;18.13;;;8.10;99.90;;;;;;7033793;27;20444;-67
2020/12/16 08:56:43;;;;;;;33.70;17.05;;;8.20;99.90;;;;;;7050680;27;20465;-64
2020/12/16 09:00:07;;;;;;;35.67;17.70;;;8.00;99.90;;;;;;7030944;27;20394;-64
2020/12/16 09:03:28;;;;;;;35.45;17.30;;;8.00;99.90;;;;;;7054022;27;20453;-66
2020/12/16 09:07:09;;;;;;;34.10;16.75;;;7.90;99.90;;;;;;7024902;27;20443;-67
2020/12/16 09:10:30;;;;;;;33.40;16.33;;;7.70;99.90;;;;;;7054049;27;20394;-66
2020/12/16 09:13:58;;;;;;;31.08;16.65;;;7.70;99.90;;;;;;7041821;27;20833;-67
2020/12/16 09:17:21;;;;;;;36.83;17.30;;;7.80;99.90;;;;;;7033495;27;20406;-67
2020/12/16 09:20:46;;;;;;;35.75;17.50;;;7.90;99.90;;;;;;7046301;27;20484;-68
2020/12/16 09:24:07;;;;;;;32.53;15.80;;;8.00;99.90;;;;;;7045098;27;20733;-67
2020/12/16 09:27:28;;;;;;;34.43;16.40;;;8.00;99.90;;;;;;7042776;27;20401;-66
2020/12/16 09:30:48;;;;;;;34.15;18.95;;;8.30;99.90;;;;;;7027452;27;20410;-67
2020/12/16 09:34:10;;;;;;;29.77;15.98;;;8.40;99.90;;;;;;7070681;27;20389;-66
2020/12/16 09:37:33;;;;;;;28.73;16.93;;;8.70;99.90;;;;;;7053310;27;20406;-66
2020/12/16 09:40:58;;;;;;;25.55;14.85;;;9.20;99.90;;;;;;7042680;27;20398;-64
2020/12/16 09:44:28;;;;;;;23.87;14.03;;;9.70;99.90;;;;;;7036383;27;20412;-66
2020/12/16 09:47:51;;;;;;;21.42;12.75;;;9.90;99.90;;;;;;7037902;27;20430;-67
2020/12/16 09:51:21;;;;;;;21.67;12.65;;;10.00;99.90;;;;;;7044308;27;20447;-66
2020/12/16 09:54:42;;;;;;;20.63;12.27;;;10.10;99.90;;;;;;7041939;27;20423;-67
2020/12/16 09:58:08;;;;;;;26.83;12.10;;;9.90;99.90;;;;;;7044616;27;20393;-67
2020/12/16 10:01:29;;;;;;;31.10;11.85;;;9.70;99.90;;;;;;7062718;27;20392;-67
2020/12/16 10:04:54;;;;;;;28.75;12.57;;;9.40;99.90;;;;;;7049978;27;20963;-67
2020/12/16 10:08:16;;;;;;;26.00;12.75;;;9.40;99.90;;;;;;7052651;27;20396;-67
2020/12/16 10:11:38;;;;;;;55.50;13.35;;;9.10;99.90;;;;;;7059050;27;20393;-67
2020/12/16 10:14:59;;;;;;;47.30;11.97;;;8.80;99.90;;;;;;7034496;27;20405;-66
2020/12/16 10:18:20;;;;;;;34.15;12.90;;;8.70;99.90;;;;;;7042920;27;20439;-66
2020/12/16 10:21:40;;;;;;;39.50;12.75;;;8.80;99.90;;;;;;7043925;27;20501;-65
2020/12/16 10:25:02;;;;;;;32.37;12.10;;;8.70;99.90;;;;;;7043599;27;20413;-67
2020/12/16 10:28:24;;;;;;;34.37;11.53;;;8.70;99.90;;;;;;7041932;27;20941;-65
2020/12/16 10:31:49;;;;;;;27.00;10.10;;;8.80;99.90;;;;;;7042817;27;20474;-65
2020/12/16 10:35:10;;;;;;;26.48;10.10;;;8.70;99.90;;;;;;7023360;27;20402;-64
2020/12/16 10:38:31;;;;;;;24.47;12.23;;;8.70;99.90;;;;;;7042288;27;20468;-65
2020/12/16 10:41:59;;;;;;;25.42;12.80;;;8.70;99.90;;;;;;7041652;27;20754;-63
2020/12/16 10:45:20;;;;;;;27.07;13.00;;;9.10;99.90;;;;;;7027751;27;20413;-64
2020/12/16 10:48:41;;;;;;;24.27;13.18;;;9.00;99.90;;;;;;7071356;27;20395;-66
2020/12/16 10:52:07;;;;;;;23.75;12.57;;;9.00;99.90;;;;;;7045870;27;20608;-66
2020/12/16 10:55:29;;;;;;;26.42;13.70;;;8.80;99.90;;;;;;7029152;27;20834;-67
2020/12/16 10:58:50;;;;;;;23.55;13.95;;;8.70;99.90;;;;;;7036622;27;20398;-67
2020/12/16 11:02:11;;;;;;;22.87;12.80;;;9.10;99.90;;;;;;7051345;27;20420;-67
2020/12/16 11:05:32;;;;;;;21.90;13.63;;;9.60;99.90;;;;;;7038250;27;20406;-67
2020/12/16 11:08:52;;;;;;;20.63;12.50;;;10.40;99.90;;;;;;7043739;27;20745;-67
2020/12/16 11:12:13;;;;;;;20.50;12.50;;;11.80;99.90;;;;;;7072969;27;20406;-66
2020/12/16 11:15:34;;;;;;;21.37;13.87;;;12.50;99.90;;;;;;7039485;27;20426;-67
2020/12/16 11:18:55;;;;;;;19.88;13.45;;;12.60;99.90;;;;;;7077120;27;20423;-67
2020/12/16 11:22:16;;;;;;;20.73;12.30;;;12.80;99.90;;;;;;7049519;27;20924;-66
2020/12/16 11:25:36;;;;;;;20.48;12.75;;;14.60;99.90;;;;;;7041543;27;20472;-66
2020/12/16 11:28:57;;;;;;;20.10;12.65;;;15.70;99.90;;;;;;7039338;27;20481;-66
2020/12/16 11:32:18;;;;;;;22.63;13.20;;;16.30;99.90;;;;;;7021412;27;20390;-66
2020/12/16 11:35:39;;;;;;;20.92;12.70;;;15.20;99.90;;;;;;7043006;27;20807;-66
2020/12/16 11:39:00;;;;;;;21.60;12.93;;;13.40;99.90;;;;;;7025179;27;20394;-66
2020/12/16 11:42:20;;;;;;;22.30;13.30;;;11.80;99.90;;;;;;7039097;27;20507;-66
2020/12/16 11:45:41;;;;;;;27.70;13.40;;;10.50;99.90;;;;;;7038178;27;20404;-66
2020/12/16 11:49:03;;;;;;;26.70;13.80;;;9.60;99.90;;;;;;7043125;27;20400;-66
2020/12/16 11:52:24;;;;;;;24.27;13.25;;;9.20;99.90;;;;;;7032196;27;20475;-65
2020/12/16 11:55:45;;;;;;;25.55;13.80;;;8.90;99.90;;;;;;7057502;27;20439;-65
2020/12/16 11:59:06;;;;;;;23.45;12.52;;;8.60;99.90;;;;;;7061733;27;20437;-65
2020/12/16 12:02:27;;;;;;;22.87;12.60;;;8.40;99.90;;;;;;7041555;27;20905;-65
2020/12/16 12:05:47;;;;;;;23.05;11.30;;;8.30;99.90;;;;;;7038568;27;20420;-65
2020/12/16 12:09:10;;;;;;;19.90;10.23;;;8.20;99.90;;;;;;7057974;27;20381;-65
2020/12/16 12:12:31;;;;;;;27.92;10.82;;;8.00;99.90;;;;;;7034130;27;20426;-65
2020/12/16 12:15:52;;;;;;;36.25;10.60;;;7.90;99.90;;;;;;7034311;27;20734;-65
2020/12/16 12:19:12;;;;;;;29.25;11.70;;;7.60;99.90;;;;;;7023971;27;20421;-66
2020/12/16 12:22:33;;;;;;;31.13;11.10;;;7.60;99.90;;;;;;7025507;27;20400;-65
2020/12/16 12:25:54;;;;;;;34.03;10.23;;;7.70;99.90;;;;;;7027921;27;20418;-67
2020/12/16 12:29:15;;;;;;;30.10;11.00;;;7.70;99.90;;;;;;7024224;27;20493;-67
2020/12/16 12:32:36;;;;;;;34.75;11.05;;;7.60;99.90;;;;;;7036613;27;20470;-67
2020/12/16 12:35:58;;;;;;;31.73;10.88;;;7.70;99.90;;;;;;7033009;28;20410;-67
2020/12/16 12:39:19;;;;;;;31.00;11.32;;;7.80;99.90;;;;;;7030040;27;20783;-67
2020/12/16 12:42:40;;;;;;;31.45;11.25;;;7.70;99.90;;;;;;7079772;27;20410;-67
2020/12/16 12:46:00;;;;;;;25.67;11.05;;;7.70;99.90;;;;;;7057239;28;20928;-67
2020/12/16 12:49:21;;;;;;;29.60;11.43;;;7.80;99.90;;;;;;7048201;27;20452;-67
2020/12/16 12:52:42;;;;;;;30.25;11.95;;;7.80;99.90;;;;;;7037740;27;20887;-67
2020/12/16 12:56:03;;;;;;;28.77;11.95;;;7.80;99.90;;;;;;7040069;27;20786;-67
2020/12/16 12:59:24;;;;;;;38.58;11.63;;;7.80;99.90;;;;;;7036888;27;20397;-67
2020/12/16 13:02:45;;;;;;;31.70;12.83;;;7.80;99.90;;;;;;7042256;27;20392;-67
2020/12/16 13:06:09;;;;;;;30.35;12.43;;;7.80;99.90;;;;;;7056364;27;20454;-67
2020/12/16 13:09:31;;;;;;;31.25;13.70;;;7.80;99.90;;;;;;7033141;27;20396;-67
2020/12/16 13:12:52;;;;;;;34.03;14.23;;;7.80;99.90;;;;;;7040824;27;20416;-67
2020/12/16 13:16:13;;;;;;;32.78;14.10;;;7.80;99.90;;;;;;7035992;27;20908;-67
2020/12/16 13:19:34;;;;;;;34.75;14.10;;;7.90;99.90;;;;;;7050562;27;20393;-67
2020/12/16 13:22:54;;;;;;;35.00;14.00;;;8.00;99.90;;;;;;7025524;27;20817;-67
2020/12/16 13:26:15;;;;;;;31.40;13.65;;;8.10;99.90;;;;;;7043775;27;20417;-67
2020/12/16 13:29:36;;;;;;;42.17;14.82;;;8.10;99.90;;;;;;7055863;27;20394;-67
2020/12/16 13:32:57;;;;;;;34.23;14.70;;;8.20;99.90;;;;;;7053707;27;20389;-67
2020/12/16 13:36:20;;;;;;;41.95;15.27;;;8.20;99.90;;;;;;7044641;27;20432;-67
2020/12/16 13:39:42;;;;;;;36.28;14.73;;;8.30;99.90;;;;;;7035564;27;20408;-67
2020/12/16 13:43:02;;;;;;;36.85;15.43;;;8.40;99.90;;;;;;7039213;27;20915;-67
2020/12/16 13:46:23;;;;;;;41.43;14.40;;;8.40;99.90;;;;;;7047234;27;20406;-67
2020/12/16 13:49:44;;;;;;;42.72;14.63;;;8.40;99.90;;;;;;7040897;27;20386;-67
2020/12/16 13:53:05;;;;;;;43.72;15.07;;;8.40;99.90;;;;;;7038030;27;20399;-68
2020/12/16 13:56:29;;;;;;;33.92;15.10;;;8.40;99.90;;;;;;7042416;27;20422;-65
2020/12/16 13:59:50;;;;;;;41.30;14.37;;;8.40;99.90;;;;;;7041671;27;20394;-65
2020/12/16 14:03:11;;;;;;;52.90;15.30;;;8.40;99.90;;;;;;7042053;27;20493;-66
2020/12/16 14:06:31;;;;;;;37.30;14.60;;;8.50;99.90;;;;;;7048024;27;20487;-66
2020/12/16 14:09:52;;;;;;;56.72;15.73;;;8.30;99.90;;;;;;7038624;27;20389;-65
2020/12/16 14:13:13;;;;;;;48.73;16.40;;;8.40;99.90;;;;;;7034693;27;20403;-66
2020/12/16 14:16:34;;;;;;;39.50;15.63;;;8.30;99.90;;;;;;7060703;27;20439;-66
2020/12/16 14:19:55;;;;;;;43.35;16.95;;;8.30;99.90;;;;;;7047872;27;20759;-66
2020/12/16 14:23:15;;;;;;;43.80;16.40;;;8.30;99.90;;;;;;7037540;27;20415;-66
2020/12/16 14:26:36;;;;;;;46.38;15.43;;;8.20;99.90;;;;;;7053300;27;20403;-66
2020/12/16 14:29:57;;;;;;;40.40;15.85;;;8.20;99.90;;;;;;7027612;27;20394;-68
2020/12/16 14:33:18;;;;;;;42.80;16.00;;;8.20;99.90;;;;;;7033032;27;20410;-68
2020/12/16 14:36:41;;;;;;;39.40;15.40;;;8.20;99.90;;;;;;7067444;27;20419;-67
2020/12/16 14:40:03;;;;;;;34.17;15.57;;;8.10;99.90;;;;;;7030838;27;20463;-67
2020/12/16 14:43:24;;;;;;;37.95;16.38;;;8.10;99.90;;;;;;7057328;27;20808;-68
2020/12/16 14:46:49;;;;;;;37.03;16.23;;;8.10;99.90;;;;;;7044621;27;20490;-67
2020/12/16 14:50:10;;;;;;;38.50;15.77;;;8.10;99.90;;;;;;7033713;27;20391;-67
2020/12/16 14:53:33;;;;;;;33.00;15.90;;;8.20;99.90;;;;;;7046780;27;20390;-67
2020/12/16 14:56:54;;;;;;;40.55;15.55;;;8.10;99.90;;;;;;7042021;27;20394;-67
2020/12/16 15:00:16;;;;;;;37.03;15.68;;;8.00;99.90;;;;;;7034076;27;20395;-67
2020/12/16 15:03:37;;;;;;;37.33;15.52;;;7.90;99.90;;;;;;7052499;27;21024;-66
2020/12/16 15:06:58;;;;;;;36.17;15.82;;;7.90;99.90;;;;;;7031368;27;20485;-66
2020/12/16 15:10:19;;;;;;;51.88;16.90;;;7.90;99.90;;;;;;7041062;27;20965;-66
2020/12/16 15:13:40;;;;;;;45.53;17.80;;;7.90;99.90;;;;;;7044460;27;20457;-66
2020/12/16 15:17:04;;;;;;;42.90;16.70;;;7.90;99.90;;;;;;7040665;27;20912;-66
2020/12/16 15:20:28;;;;;;;39.50;17.00;;;7.90;99.90;;;;;;7042931;27;20433;-66
2020/12/16 15:23:49;;;;;;;43.90;18.30;;;7.90;99.90;;;;;;7042375;27;20406;-66
2020/12/16 15:27:11;;;;;;;42.35;18.90;;;7.90;99.90;;;;;;7054736;27;20481;-66
2020/12/16 15:30:32;;;;;;;50.42;18.90;;;7.90;99.90;;;;;;7040751;27;20406;-66
2020/12/16 15:33:52;;;;;;;42.03;17.77;;;7.90;99.90;;;;;;7030007;27;20474;-66
2020/12/16 15:37:13;;;;;;;40.83;18.20;;;7.90;99.90;;;;;;7037009;27;20751;-66
2020/12/16 15:40:34;;;;;;;40.65;18.80;;;7.90;99.90;;;;;;7024224;27;20492;-66
2020/12/16 15:43:55;;;;;;;44.85;16.90;;;8.00;99.90;;;;;;7036036;27;20400;-66
2020/12/16 15:47:16;;;;;;;46.58;17.45;;;8.00;99.90;;;;;;7039570;27;20393;-66
2020/12/16 15:50:37;;;;;;;40.10;17.38;;;7.90;99.90;;;;;;7035287;27;20395;-66
2020/12/16 15:54:00;;;;;;;39.10;16.38;;;7.80;99.90;;;;;;7064282;27;20412;-66
2020/12/16 15:57:21;;;;;;;38.40;16.83;;;7.80;99.90;;;;;;7058367;27;20401;-66
2020/12/16 16:00:42;;;;;;;45.60;18.10;;;7.80;99.90;;;;;;7040059;27;20457;-66
2020/12/16 16:04:02;;;;;;;35.53;16.63;;;7.90;99.90;;;;;;7037258;27;20447;-65
2020/12/16 16:07:40;;;;;;;35.45;16.88;;;7.90;99.90;;;;;;7021701;27;20998;-65
2020/12/16 16:11:03;;;;;;;36.08;16.00;;;7.90;99.90;;;;;;7016856;27;20394;-66
2020/12/16 16:14:23;;;;;;;38.97;17.37;;;7.80;99.90;;;;;;7028384;27;20801;-66
2020/12/16 16:17:44;;;;;;;37.70;17.93;;;7.80;99.90;;;;;;7032362;27;20454;-67
2020/12/16 16:21:05;;;;;;;38.15;17.20;;;7.80;99.90;;;;;;7035754;27;20396;-66
2020/12/16 16:24:26;;;;;;;35.17;17.67;;;7.90;99.90;;;;;;7029057;27;20408;-68
2020/12/16 16:27:46;;;;;;;39.13;18.13;;;8.00;99.90;;;;;;7055243;27;20381;-67
2020/12/16 16:31:07;;;;;;;42.45;19.42;;;7.90;99.90;;;;;;7032182;27;20421;-66
2020/12/16 16:34:29;;;;;;;45.15;20.80;;;7.90;99.90;;;;;;7036761;27;20410;-65
2020/12/16 16:37:50;;;;;;;49.07;20.20;;;7.90;99.90;;;;;;7020488;27;20428;-65
2020/12/16 16:41:11;;;;;;;43.40;19.42;;;7.80;99.90;;;;;;7026334;27;20398;-65
2020/12/16 16:44:32;;;;;;;49.10;20.98;;;7.90;99.90;;;;;;7031390;27;20827;-65
2020/12/16 16:47:53;;;;;;;48.58;20.38;;;7.90;99.90;;;;;;7027925;27;20381;-65
2020/12/16 16:51:14;;;;;;;48.80;19.80;;;7.90;99.90;;;;;;7054689;27;20487;-64
2020/12/16 16:54:35;;;;;;;47.70;20.42;;;8.00;99.90;;;;;;7039365;27;20422;-66
2020/12/16 16:57:56;;;;;;;45.22;20.35;;;8.00;99.90;;;;;;7045777;27;20425;-66
2020/12/16 17:01:24;;;;;;;46.00;20.53;;;8.10;99.90;;;;;;7049340;27;20382;-66
2020/12/16 17:04:45;;;;;;;44.28;19.92;;;8.10;99.90;;;;;;7078279;27;20406;-67
2020/12/16 17:08:06;;;;;;;45.42;21.83;;;8.10;99.90;;;;;;7038543;27;20402;-66
2020/12/16 17:11:27;;;;;;;46.35;21.88;;;8.20;99.90;;;;;;7029017;27;20904;-67
2020/12/16 17:14:48;;;;;;;48.30;22.00;;;8.20;99.90;;;;;;7045901;27;20399;-67
2020/12/16 17:18:09;;;;;;;43.65;19.92;;;8.30;99.90;;;;;;7052732;27;20386;-66
2020/12/16 17:21:31;;;;;;;44.93;21.77;;;8.20;99.90;;;;;;7041709;27;20420;-66
2020/12/16 17:24:52;;;;;;;46.22;21.20;;;8.30;99.90;;;;;;7043098;27;20911;-66